Wellington (NZWN)

Aerodrome — Elev 42
New Zealand
S041.19.37.999 E174.48.19.001
Loading chart...

Current Weather

NZWN 270600Z AUTO 35010KT 9999 -RA FEW023/// SCT030/// OVC060/// 12/10 Q1001 BECMG 18020G35KT

Published 40 minutes ago

Airport Activity

Loading chart...
Loading chart...

Positions

CallsignRadio Name / Freq / Voice Room / TypeFrequencyVoice RoomType
NZCH-T_CTR Christchurch Control
123.700
nzch-t_ctr
123.700nzch-t_ctr
NZWN_APP Wellington Approach
119.300
nzwn_app
119.300nzwn_app
NZWN_DEP Wellington Approach
122.300
nzwn_dep
122.300nzwn_dep
NZWN_TWR Wellington Tower
118.800
nzwn_twr
118.800nzwn_twr
NZWN_GND Wellington Ground
121.900
nzwn_gnd
121.900nzwn_gnd
NZWN_DEL Wellington Delivery
128.200
nzwn_del
128.200nzwn_del
NZWN_ATIS Wellington ATIS
126.900
nzwn_atis
126.900nzwn_atis
UNICOM NZZC UNICOM
122.800
unicom_nzzc
122.800unicom_nzzc

Charts